Time;durP1;ratioP1;P1;durP2;ratioP2;P2;SDS_P1;SDS_P2;PMS_P1;PMS_P2;Temp;Humidity;BMP_temperature;BMP_pressure;BME280_temperature;BME280_humidity;BME280_pressure;Samples;Min_cycle;Max_cycle;Signal;HPM_P1;HPM_P2
2022/04/24 00:01:21;;;;;;;5.03;1.13;;;;;;;;;;5123715;28;20501;-57
2022/04/24 00:03:46;;;;;;;1.25;0.57;;;;;;;;;;5124805;28;20058;-57
2022/04/24 00:06:11;;;;;;;1.27;0.70;;;;;;;;;;5124929;28;20059;-57
2022/04/24 00:08:37;;;;;;;10.90;1.75;;;;;;;;;;5126070;28;20461;-57
2022/04/24 00:11:02;;;;;;;4.13;1.33;;;;;;;;;;5124875;27;20577;-56
2022/04/24 00:13:31;;;;;;;1.67;0.63;;;;;;;;;;5125364;28;20050;-58
2022/04/24 00:15:56;;;;;;;7.65;0.95;;;;;;;;;;5120238;28;20043;-57
2022/04/24 00:18:21;;;;;;;2.17;0.60;;;;;;;;;;5125554;28;20054;-58
2022/04/24 00:20:47;;;;;;;14.10;1.45;;;;;;;;;;5125347;28;20058;-57
2022/04/24 00:23:12;;;;;;;1.95;0.80;;;;;;;;;;5125956;28;20557;-57
2022/04/24 00:25:37;;;;;;;6.53;2.20;;;;;;;;;;5124442;28;20055;-56
2022/04/24 00:28:02;;;;;;;2.22;0.88;;;;;;;;;;5125150;28;20051;-57
2022/04/24 00:30:28;;;;;;;1.50;0.88;;;;;;;;;;5126763;28;20422;-57
2022/04/24 00:32:53;;;;;;;4.53;1.95;;;;;;;;;;5127145;28;20050;-57
2022/04/24 00:35:18;;;;;;;2.83;1.13;;;;;;;;;;5127393;28;20127;-57
2022/04/24 00:37:44;;;;;;;10.88;5.65;;;;;;;;;;5127042;28;20430;-57
2022/04/24 00:40:09;;;;;;;5.18;4.20;;;;;;;;;;5126790;28;20548;-57
2022/04/24 00:42:35;;;;;;;11.10;3.72;;;;;;;;;;5127049;28;20050;-57
2022/04/24 00:45:00;;;;;;;1.45;0.43;;;;;;;;;;5106711;28;20070;-57
2022/04/24 00:47:25;;;;;;;5.55;1.63;;;;;;;;;;5126782;28;20505;-57
2022/04/24 00:49:51;;;;;;;3.83;1.48;;;;;;;;;;5126823;28;20579;-57
2022/04/24 00:52:17;;;;;;;1.30;0.70;;;;;;;;;;5126748;28;20050;-57
2022/04/24 00:54:42;;;;;;;4.85;1.33;;;;;;;;;;5126523;28;20502;-57
2022/04/24 00:57:12;;;;;;;8.00;1.00;;;;;;;;;;5126541;28;20051;-58
2022/04/24 00:59:38;;;;;;;5.53;1.80;;;;;;;;;;5126574;28;20051;-57
2022/04/24 01:02:04;;;;;;;4.20;0.55;;;;;;;;;;5105382;28;20104;-57
2022/04/24 01:04:30;;;;;;;3.42;1.23;;;;;;;;;;5126051;28;20043;-58
2022/04/24 01:06:55;;;;;;;6.25;0.90;;;;;;;;;;5126070;28;20043;-57
2022/04/24 01:09:22;;;;;;;1.83;0.68;;;;;;;;;;5126515;28;20047;-58
2022/04/24 01:11:50;;;;;;;9.05;2.05;;;;;;;;;;5127243;28;20242;-57
2022/04/24 01:14:19;;;;;;;3.33;1.38;;;;;;;;;;5126510;28;20063;-58
2022/04/24 01:16:46;;;;;;;7.25;1.55;;;;;;;;;;5126508;28;20043;-57
2022/04/24 01:19:12;;;;;;;4.50;1.20;;;;;;;;;;5127036;28;20470;-57
2022/04/24 01:21:40;;;;;;;3.40;0.47;;;;;;;;;;5126493;27;20135;-58
2022/04/24 01:24:09;;;;;;;10.32;1.83;;;;;;;;;;5126611;28;20046;-57
2022/04/24 01:26:35;;;;;;;5.55;1.30;;;;;;;;;;5126731;28;20129;-57
2022/04/24 01:29:01;;;;;;;3.40;1.30;;;;;;;;;;5126972;28;20564;-57
2022/04/24 01:31:35;;;;;;;4.07;1.80;;;;;;;;;;5126560;28;20466;-57
2022/04/24 01:34:06;;;;;;;5.00;1.55;;;;;;;;;;5126640;28;20047;-57
2022/04/24 01:36:32;;;;;;;5.03;2.10;;;;;;;;;;5126232;28;20035;-57
2022/04/24 01:38:59;;;;;;;5.85;1.88;;;;;;;;;;5126541;28;20386;-57
2022/04/24 01:41:25;;;;;;;2.78;0.98;;;;;;;;;;5126101;28;20051;-58
2022/04/24 01:43:56;;;;;;;6.72;1.77;;;;;;;;;;5126718;28;20054;-57
2022/04/24 01:46:27;;;;;;;4.70;1.05;;;;;;;;;;5125444;28;20120;-57
2022/04/24 01:48:52;;;;;;;5.45;1.35;;;;;;;;;;5127166;28;20133;-57
2022/04/24 01:51:17;;;;;;;3.92;1.30;;;;;;;;;;5126434;28;20133;-56
2022/04/24 01:53:43;;;;;;;8.45;1.17;;;;;;;;;;5127168;28;20039;-57
2022/04/24 01:56:09;;;;;;;2.58;0.57;;;;;;;;;;5126641;28;20063;-57
2022/04/24 01:58:38;;;;;;;2.53;0.82;;;;;;;;;;5126423;28;20502;-55
2022/04/24 02:01:06;;;;;;;5.20;1.67;;;;;;;;;;5125106;28;20027;-57
2022/04/24 02:03:32;;;;;;;1.40;0.82;;;;;;;;;;5124981;28;20074;-57
2022/04/24 02:05:58;;;;;;;9.82;2.45;;;;;;;;;;5125954;28;20099;-57
2022/04/24 02:08:25;;;;;;;8.32;1.73;;;;;;;;;;5123131;28;20754;-57
2022/04/24 02:10:51;;;;;;;9.20;2.83;;;;;;;;;;5124034;28;20142;-57
2022/04/24 02:13:18;;;;;;;5.30;1.08;;;;;;;;;;5125437;28;20142;-57
2022/04/24 02:15:45;;;;;;;8.88;1.15;;;;;;;;;;5122374;28;20126;-57
2022/04/24 02:18:10;;;;;;;2.50;1.05;;;;;;;;;;5125165;28;20592;-57
2022/04/24 02:20:36;;;;;;;9.27;2.45;;;;;;;;;;5125257;28;20050;-58
2022/04/24 02:23:01;;;;;;;8.77;1.63;;;;;;;;;;5124441;28;20039;-58
2022/04/24 02:25:27;;;;;;;2.97;1.08;;;;;;;;;;5124788;28;20074;-58
2022/04/24 02:27:53;;;;;;;7.78;1.20;;;;;;;;;;5124902;28;20161;-56
2022/04/24 02:30:20;;;;;;;4.10;1.77;;;;;;;;;;5125249;28;20062;-57
2022/04/24 02:32:45;;;;;;;3.40;1.75;;;;;;;;;;5125979;27;20446;-55
2022/04/24 02:35:10;;;;;;;8.05;1.23;;;;;;;;;;5112108;27;20043;-57
2022/04/24 02:37:36;;;;;;;9.95;1.48;;;;;;;;;;5132979;27;20211;-58
2022/04/24 02:40:01;;;;;;;3.42;0.70;;;;;;;;;;5132757;27;20988;-56
2022/04/24 02:42:26;;;;;;;4.00;1.70;;;;;;;;;;5132599;27;20426;-56
2022/04/24 02:44:52;;;;;;;10.15;2.25;;;;;;;;;;5129151;27;20832;-56
2022/04/24 02:47:17;;;;;;;5.43;1.80;;;;;;;;;;5133143;27;20069;-56
2022/04/24 02:49:42;;;;;;;3.92;1.30;;;;;;;;;;5133029;27;20504;-57
2022/04/24 02:52:08;;;;;;;6.88;1.58;;;;;;;;;;5131904;27;20402;-56
2022/04/24 02:54:33;;;;;;;3.65;1.17;;;;;;;;;;5132653;27;20042;-56
2022/04/24 02:56:59;;;;;;;13.40;2.65;;;;;;;;;;5133057;27;20520;-56
2022/04/24 02:59:25;;;;;;;5.43;1.15;;;;;;;;;;5132954;27;20050;-56
2022/04/24 03:01:51;;;;;;;9.52;1.90;;;;;;;;;;5132278;27;20066;-56
2022/04/24 03:04:16;;;;;;;6.50;2.33;;;;;;;;;;5132418;27;20215;-56
2022/04/24 03:06:42;;;;;;;12.02;1.73;;;;;;;;;;5131278;27;20043;-57
2022/04/24 03:09:07;;;;;;;5.72;1.65;;;;;;;;;;5132673;27;20549;-57
2022/04/24 03:11:33;;;;;;;7.10;1.67;;;;;;;;;;5132454;27;20649;-58
2022/04/24 03:13:58;;;;;;;8.60;1.58;;;;;;;;;;5132369;27;20035;-57
2022/04/24 03:16:23;;;;;;;9.63;2.78;;;;;;;;;;5131032;27;20050;-56
2022/04/24 03:18:49;;;;;;;8.80;1.75;;;;;;;;;;5132315;27;20074;-57
2022/04/24 03:21:14;;;;;;;5.00;1.45;;;;;;;;;;5132081;27;20413;-57
2022/04/24 03:23:39;;;;;;;9.07;2.05;;;;;;;;;;5132155;27;20577;-57
2022/04/24 03:26:05;;;;;;;9.68;2.33;;;;;;;;;;5132157;27;20354;-55
2022/04/24 03:28:31;;;;;;;14.88;4.00;;;;;;;;;;5131978;27;20038;-57
2022/04/24 03:30:56;;;;;;;4.70;1.02;;;;;;;;;;5130991;27;20421;-57
2022/04/24 03:33:21;;;;;;;7.95;2.45;;;;;;;;;;5130124;27;20039;-56
2022/04/24 03:35:47;;;;;;;22.98;2.53;;;;;;;;;;5132382;27;20062;-56
2022/04/24 03:38:12;;;;;;;10.43;1.83;;;;;;;;;;5132198;27;20043;-57
2022/04/24 03:40:37;;;;;;;4.47;1.52;;;;;;;;;;5132443;27;20135;-57
2022/04/24 03:43:03;;;;;;;4.65;1.67;;;;;;;;;;5131470;27;20130;-57
2022/04/24 03:45:28;;;;;;;6.28;1.30;;;;;;;;;;5129078;27;20066;-57
2022/04/24 03:47:53;;;;;;;3.88;1.42;;;;;;;;;;5128463;28;20447;-57
2022/04/24 03:50:21;;;;;;;3.50;1.00;;;;;;;;;;5128445;28;20047;-56
2022/04/24 03:52:47;;;;;;;12.65;1.50;;;;;;;;;;5127848;28;20081;-57
2022/04/24 03:55:12;;;;;;;3.47;1.33;;;;;;;;;;5128389;28;20487;-56
2022/04/24 03:57:38;;;;;;;2.97;1.02;;;;;;;;;;5128942;28;20050;-57
2022/04/24 04:00:04;;;;;;;12.98;2.22;;;;;;;;;;5127292;28;20053;-57
2022/04/24 04:02:29;;;;;;;9.93;2.00;;;;;;;;;;5128129;28;20061;-57
2022/04/24 04:04:54;;;;;;;8.40;1.95;;;;;;;;;;5127283;28;20368;-57
2022/04/24 04:07:20;;;;;;;6.60;2.47;;;;;;;;;;5128125;28;20058;-57
2022/04/24 04:09:46;;;;;;;6.03;1.95;;;;;;;;;;5127218;28;20050;-57
2022/04/24 04:12:11;;;;;;;3.55;1.13;;;;;;;;;;5127961;28;20470;-56
2022/04/24 04:14:36;;;;;;;4.22;1.27;;;;;;;;;;5128157;28;20043;-57
2022/04/24 04:17:02;;;;;;;12.77;2.22;;;;;;;;;;5127931;28;20046;-57
2022/04/24 04:19:27;;;;;;;10.13;1.58;;;;;;;;;;5126759;28;20118;-57
2022/04/24 04:21:53;;;;;;;12.93;3.20;;;;;;;;;;5128416;28;20070;-56
2022/04/24 04:24:18;;;;;;;5.65;1.02;;;;;;;;;;5128056;28;20112;-57
2022/04/24 04:26:44;;;;;;;3.65;1.55;;;;;;;;;;5128373;28;20050;-57
2022/04/24 04:29:09;;;;;;;3.55;1.38;;;;;;;;;;5128241;28;20043;-57
2022/04/24 04:31:34;;;;;;;1.45;0.95;;;;;;;;;;5127077;28;20066;-57
2022/04/24 04:34:00;;;;;;;6.53;1.55;;;;;;;;;;5127992;28;20039;-57
2022/04/24 04:36:25;;;;;;;5.20;1.38;;;;;;;;;;5127684;28;20047;-55
2022/04/24 04:38:50;;;;;;;11.65;2.80;;;;;;;;;;5127728;28;20043;-56
2022/04/24 04:41:16;;;;;;;4.47;0.93;;;;;;;;;;5125784;28;20254;-57
2022/04/24 04:43:41;;;;;;;7.90;1.38;;;;;;;;;;5127866;28;20433;-57
2022/04/24 04:46:06;;;;;;;5.28;1.48;;;;;;;;;;5127429;28;20047;-56
2022/04/24 04:48:32;;;;;;;9.57;1.70;;;;;;;;;;5127896;28;20536;-57
2022/04/24 04:50:57;;;;;;;3.95;1.70;;;;;;;;;;5127277;28;20490;-57
2022/04/24 04:53:22;;;;;;;10.90;2.45;;;;;;;;;;5127377;28;20118;-57
2022/04/24 04:55:48;;;;;;;5.47;2.20;;;;;;;;;;5103205;27;20197;-55
2022/04/24 04:58:13;;;;;;;7.60;1.48;;;;;;;;;;5127457;28;20053;-56
2022/04/24 05:00:39;;;;;;;5.03;2.30;;;;;;;;;;5127360;28;20039;-56
2022/04/24 05:03:04;;;;;;;6.63;1.45;;;;;;;;;;5099990;28;20100;-56
2022/04/24 05:05:29;;;;;;;5.35;2.15;;;;;;;;;;5127472;28;20046;-56
2022/04/24 05:07:55;;;;;;;3.47;2.25;;;;;;;;;;5127435;28;20043;-56
2022/04/24 05:10:20;;;;;;;5.88;1.60;;;;;;;;;;5127493;28;20044;-57
2022/04/24 05:12:45;;;;;;;8.00;1.85;;;;;;;;;;5127632;28;20054;-56
2022/04/24 05:15:13;;;;;;;14.98;2.00;;;;;;;;;;5126895;28;20035;-57
2022/04/24 05:17:39;;;;;;;7.50;1.80;;;;;;;;;;5127708;28;20047;-57
2022/04/24 05:20:05;;;;;;;7.35;1.50;;;;;;;;;;5126844;28;20184;-56
2022/04/24 05:22:30;;;;;;;13.05;2.80;;;;;;;;;;5126354;28;20732;-56
2022/04/24 05:24:55;;;;;;;1.75;1.15;;;;;;;;;;5127087;28;20035;-56
2022/04/24 05:27:21;;;;;;;4.28;1.35;;;;;;;;;;5126884;28;20458;-57
2022/04/24 05:29:47;;;;;;;4.38;1.20;;;;;;;;;;5126813;28;20372;-56
2022/04/24 05:32:12;;;;;;;2.83;1.05;;;;;;;;;;5125092;28;20035;-57
2022/04/24 05:34:39;;;;;;;24.98;3.30;;;;;;;;;;5126151;28;20589;-54
2022/04/24 05:37:04;;;;;;;4.32;1.60;;;;;;;;;;5124302;28;20043;-57
2022/04/24 05:39:30;;;;;;;9.32;2.92;;;;;;;;;;5125982;28;20534;-58
2022/04/24 05:41:55;;;;;;;1.65;0.85;;;;;;;;;;5126616;28;20074;-58
2022/04/24 05:44:20;;;;;;;14.70;3.00;;;;;;;;;;5125947;28;20047;-58
2022/04/24 05:46:46;;;;;;;10.95;1.77;;;;;;;;;;5125947;28;20122;-57
2022/04/24 05:49:11;;;;;;;6.35;2.70;;;;;;;;;;5125354;28;20046;-59
2022/04/24 05:51:36;;;;;;;10.52;2.20;;;;;;;;;;5105202;28;20391;-58
2022/04/24 05:54:02;;;;;;;5.38;3.30;;;;;;;;;;5125375;28;20035;-59
2022/04/24 05:56:27;;;;;;;11.80;6.18;;;;;;;;;;5125406;28;20042;-59
2022/04/24 05:58:52;;;;;;;7.95;3.13;;;;;;;;;;5125693;28;20743;-59
2022/04/24 06:01:17;;;;;;;12.80;3.88;;;;;;;;;;5125774;28;20054;-59
2022/04/24 06:03:43;;;;;;;11.95;3.47;;;;;;;;;;5126254;28;20083;-60
2022/04/24 06:06:08;;;;;;;12.80;3.65;;;;;;;;;;5125740;28;20062;-58
2022/04/24 06:08:34;;;;;;;4.60;2.00;;;;;;;;;;5126052;27;20501;-58
2022/04/24 06:10:59;;;;;;;13.93;3.00;;;;;;;;;;5124322;28;20058;-58
2022/04/24 06:13:24;;;;;;;9.77;3.97;;;;;;;;;;5126497;28;20031;-58
2022/04/24 06:15:54;;;;;;;3.72;2.00;;;;;;;;;;5125745;28;20367;-58
2022/04/24 06:18:19;;;;;;;7.03;2.97;;;;;;;;;;5126479;28;20047;-58
2022/04/24 06:20:44;;;;;;;6.38;1.85;;;;;;;;;;5126560;28;20047;-58
2022/04/24 06:23:10;;;;;;;3.63;2.03;;;;;;;;;;5125630;28;20049;-57
2022/04/24 06:25:36;;;;;;;10.63;2.97;;;;;;;;;;5124902;28;20047;-57
2022/04/24 06:28:02;;;;;;;4.50;2.05;;;;;;;;;;5125530;27;20058;-57
2022/04/24 06:30:29;;;;;;;14.73;3.78;;;;;;;;;;5126020;27;20047;-57
2022/04/24 06:32:56;;;;;;;20.52;2.15;;;;;;;;;;5126149;28;20070;-57
2022/04/24 06:35:22;;;;;;;9.60;2.80;;;;;;;;;;5125082;28;20501;-57
2022/04/24 06:37:55;;;;;;;13.43;2.53;;;;;;;;;;5124525;28;20105;-57
2022/04/24 06:40:23;;;;;;;7.50;1.80;;;;;;;;;;5125421;28;20138;-57
2022/04/24 06:42:51;;;;;;;7.00;2.60;;;;;;;;;;5100116;28;20054;-58
2022/04/24 06:45:17;;;;;;;3.10;0.80;;;;;;;;;;5121173;27;20801;-58
2022/04/24 06:47:43;;;;;;;9.93;1.25;;;;;;;;;;5123265;28;20047;-57
2022/04/24 06:50:08;;;;;;;2.92;1.42;;;;;;;;;;5123212;28;20479;-57
2022/04/24 06:52:33;;;;;;;1.17;0.70;;;;;;;;;;5123403;28;20047;-57
2022/04/24 06:55:00;;;;;;;2.97;1.75;;;;;;;;;;5122644;28;20633;-58
2022/04/24 06:57:25;;;;;;;10.60;1.95;;;;;;;;;;5123152;28;20537;-58
2022/04/24 06:59:51;;;;;;;14.70;4.00;;;;;;;;;;5122926;28;20038;-57
2022/04/24 07:02:16;;;;;;;13.30;2.50;;;;;;;;;;5123046;28;20049;-55
2022/04/24 07:04:41;;;;;;;8.38;1.88;;;;;;;;;;5123815;28;20039;-58
2022/04/24 07:07:07;;;;;;;3.88;1.05;;;;;;;;;;5125065;28;20092;-57
2022/04/24 07:09:32;;;;;;;4.20;2.33;;;;;;;;;;5125863;28;20064;-58
2022/04/24 07:11:58;;;;;;;7.53;2.15;;;;;;;;;;5116422;28;20126;-57
2022/04/24 07:14:23;;;;;;;6.53;2.03;;;;;;;;;;5102758;28;20463;-54
2022/04/24 07:16:48;;;;;;;1.13;0.57;;;;;;;;;;5122011;28;20659;-57
2022/04/24 07:19:14;;;;;;;11.43;1.75;;;;;;;;;;5116401;27;20085;-57
2022/04/24 07:21:39;;;;;;;8.15;1.42;;;;;;;;;;5125182;28;20087;-56
2022/04/24 07:24:05;;;;;;;11.02;2.45;;;;;;;;;;5126709;28;20039;-58
2022/04/24 07:26:31;;;;;;;6.88;2.75;;;;;;;;;;5126242;28;20055;-57
2022/04/24 07:28:57;;;;;;;4.55;2.05;;;;;;;;;;5126007;28;20101;-57
2022/04/24 07:31:22;;;;;;;2.58;1.25;;;;;;;;;;5126217;28;20083;-59
2022/04/24 07:33:48;;;;;;;0.85;0.70;;;;;;;;;;5124510;28;20035;-58
2022/04/24 07:36:13;;;;;;;4.63;1.70;;;;;;;;;;5125990;28;20054;-57
2022/04/24 07:38:39;;;;;;;2.35;0.80;;;;;;;;;;5126147;28;20513;-59
2022/04/24 07:41:05;;;;;;;4.80;1.73;;;;;;;;;;5125370;28;20058;-59
2022/04/24 07:43:30;;;;;;;4.68;1.27;;;;;;;;;;5124523;28;20047;-57
2022/04/24 07:45:55;;;;;;;1.90;0.88;;;;;;;;;;5126010;28;20050;-60
2022/04/24 07:48:21;;;;;;;1.65;0.57;;;;;;;;;;5125500;28;20130;-57
2022/04/24 07:50:48;;;;;;;1.48;0.57;;;;;;;;;;5125752;28;20039;-58
2022/04/24 07:53:14;;;;;;;2.03;0.77;;;;;;;;;;5125428;28;20133;-57
2022/04/24 07:55:40;;;;;;;5.70;1.27;;;;;;;;;;5125614;28;20195;-58
2022/04/24 07:58:06;;;;;;;4.63;0.82;;;;;;;;;;5125399;28;20068;-58
2022/04/24 08:00:32;;;;;;;2.53;1.25;;;;;;;;;;5125051;28;20193;-58
2022/04/24 08:03:01;;;;;;;2.15;1.02;;;;;;;;;;5126206;28;20126;-58
2022/04/24 08:05:26;;;;;;;5.40;1.67;;;;;;;;;;5124868;28;20529;-58
2022/04/24 08:07:52;;;;;;;7.05;1.70;;;;;;;;;;5123950;28;20083;-58
2022/04/24 08:10:18;;;;;;;1.35;0.63;;;;;;;;;;5123472;28;20097;-58
2022/04/24 08:12:44;;;;;;;1.85;0.68;;;;;;;;;;5125185;28;20043;-58
2022/04/24 08:15:09;;;;;;;2.25;1.15;;;;;;;;;;5124808;28;20289;-58
2022/04/24 08:17:35;;;;;;;2.17;0.50;;;;;;;;;;5106393;28;20062;-58
2022/04/24 08:20:01;;;;;;;1.65;0.68;;;;;;;;;;5125703;28;20055;-59
2022/04/24 08:22:35;;;;;;;1.52;0.70;;;;;;;;;;5123521;28;20045;-58
2022/04/24 08:25:00;;;;;;;1.70;1.00;;;;;;;;;;5121614;28;20047;-58
2022/04/24 08:27:25;;;;;;;1.27;0.85;;;;;;;;;;5125528;28;20047;-58
2022/04/24 08:29:51;;;;;;;1.08;0.40;;;;;;;;;;5124995;28;20716;-59
2022/04/24 08:32:20;;;;;;;2.42;0.77;;;;;;;;;;5123974;27;20047;-58
2022/04/24 08:34:45;;;;;;;30.70;25.42;;;;;;;;;;5125302;28;20035;-58
2022/04/24 08:37:10;;;;;;;4.28;2.70;;;;;;;;;;5125250;28;20445;-58
2022/04/24 08:39:36;;;;;;;0.85;0.30;;;;;;;;;;5125567;28;20039;-59
2022/04/24 08:42:02;;;;;;;2.72;0.75;;;;;;;;;;5125160;28;20662;-58
2022/04/24 08:44:29;;;;;;;2.08;0.55;;;;;;;;;;5124510;28;20055;-58
2022/04/24 08:46:54;;;;;;;0.90;0.60;;;;;;;;;;5125265;28;20069;-57
2022/04/24 08:49:21;;;;;;;9.75;0.90;;;;;;;;;;5125458;28;20093;-58
2022/04/24 08:51:46;;;;;;;1.75;0.50;;;;;;;;;;5123662;28;20952;-58
2022/04/24 08:54:12;;;;;;;12.50;1.10;;;;;;;;;;5124905;28;20062;-58
2022/04/24 08:56:37;;;;;;;1.25;0.50;;;;;;;;;;5125293;28;20068;-58
2022/04/24 08:59:03;;;;;;;0.98;0.35;;;;;;;;;;5125071;28;20047;-59
2022/04/24 09:01:31;;;;;;;2.47;0.80;;;;;;;;;;5106518;28;20100;-61
2022/04/24 09:03:56;;;;;;;4.85;1.02;;;;;;;;;;5124257;28;20043;-61
2022/04/24 09:06:22;;;;;;;8.63;1.85;;;;;;;;;;5124130;28;20571;-60
2022/04/24 09:08:48;;;;;;;0.35;0.22;;;;;;;;;;5125700;27;20047;-60
2022/04/24 09:11:13;;;;;;;0.57;0.30;;;;;;;;;;5124849;28;20764;-61
2022/04/24 09:16:34;;;;;;;0.50;0.20;;;;;;;;;;5123885;28;20107;-61
2022/04/24 09:18:59;;;;;;;1.08;0.40;;;;;;;;;;5124158;28;20067;-61
2022/04/24 09:21:25;;;;;;;2.85;0.73;;;;;;;;;;5124486;28;20066;-61
2022/04/24 09:23:50;;;;;;;2.22;1.10;;;;;;;;;;5123825;28;20099;-62
2022/04/24 09:26:19;;;;;;;0.25;0.25;;;;;;;;;;5123357;28;20377;-61
2022/04/24 09:28:44;;;;;;;0.63;0.30;;;;;;;;;;5122767;28;20039;-61
2022/04/24 09:31:10;;;;;;;1.77;0.63;;;;;;;;;;5124565;28;20055;-60
2022/04/24 09:33:39;;;;;;;1.40;0.50;;;;;;;;;;5124395;28;20455;-61
2022/04/24 09:36:05;;;;;;;2.63;2.05;;;;;;;;;;5124595;28;20039;-59
2022/04/24 09:38:30;;;;;;;1.42;1.00;;;;;;;;;;5124917;28;20085;-61
2022/04/24 09:40:55;;;;;;;6.25;5.53;;;;;;;;;;5123993;28;20057;-62
2022/04/24 09:43:21;;;;;;;5.18;1.08;;;;;;;;;;5123817;27;20086;-61
2022/04/24 09:45:48;;;;;;;0.60;0.32;;;;;;;;;;5125002;28;20046;-60
2022/04/24 09:48:14;;;;;;;7.68;2.10;;;;;;;;;;5124231;28;20573;-60
2022/04/24 09:50:40;;;;;;;1.90;0.63;;;;;;;;;;5123883;28;20521;-62
2022/04/24 09:53:05;;;;;;;1.40;0.50;;;;;;;;;;5124190;28;20039;-61
2022/04/24 09:55:31;;;;;;;11.45;1.75;;;;;;;;;;5124025;28;20066;-61
2022/04/24 09:57:56;;;;;;;2.75;0.90;;;;;;;;;;5124276;28;20039;-59
2022/04/24 10:00:23;;;;;;;0.40;0.25;;;;;;;;;;5123858;28;20099;-60
2022/04/24 10:02:50;;;;;;;3.45;0.82;;;;;;;;;;5123857;28;20070;-58
2022/04/24 10:05:15;;;;;;;1.08;0.57;;;;;;;;;;5124881;28;20065;-60
2022/04/24 10:07:41;;;;;;;1.90;0.65;;;;;;;;;;5123413;28;20043;-59
2022/04/24 10:10:07;;;;;;;0.75;0.47;;;;;;;;;;5123601;28;20506;-58
2022/04/24 10:12:33;;;;;;;2.58;0.88;;;;;;;;;;5123601;28;20067;-58
2022/04/24 10:15:05;;;;;;;1.50;0.50;;;;;;;;;;5123296;28;20089;-58
2022/04/24 10:17:45;;;;;;;0.22;0.20;;;;;;;;;;5124410;28;20051;-58
2022/04/24 10:20:14;;;;;;;2.15;0.68;;;;;;;;;;5123171;28;20496;-58
2022/04/24 10:22:47;;;;;;;0.20;0.20;;;;;;;;;;5123631;28;20172;-58
2022/04/24 10:25:15;;;;;;;4.93;1.92;;;;;;;;;;5121717;28;20674;-58
2022/04/24 10:27:45;;;;;;;1.17;0.50;;;;;;;;;;5122393;28;20062;-58
2022/04/24 10:30:30;;;;;;;7.87;0.73;;;;;;;;;;5121744;28;20043;-58
2022/04/24 10:33:14;;;;;;;1.13;0.70;;;;;;;;;;5120153;28;20142;-58
2022/04/24 10:35:48;;;;;;;17.90;1.55;;;;;;;;;;5123332;28;20047;-60
2022/04/24 10:38:13;;;;;;;0.40;0.20;;;;;;;;;;5120735;28;20628;-59
2022/04/24 10:40:39;;;;;;;2.38;0.85;;;;;;;;;;5122582;28;20039;-60
2022/04/24 10:43:07;;;;;;;3.55;0.70;;;;;;;;;;5120666;28;20515;-58
2022/04/24 10:45:43;;;;;;;2.38;0.52;;;;;;;;;;5121233;28;20039;-57
2022/04/24 10:48:14;;;;;;;0.32;0.32;;;;;;;;;;5121105;28;20051;-58
2022/04/24 10:50:49;;;;;;;0.80;0.70;;;;;;;;;;5122284;28;20055;-58
2022/04/24 10:53:14;;;;;;;0.47;0.32;;;;;;;;;;5120856;28;20165;-58
2022/04/24 10:55:40;;;;;;;0.93;0.20;;;;;;;;;;5124986;27;20677;-57
2022/04/24 10:58:06;;;;;;;1.95;0.63;;;;;;;;;;5125333;28;20063;-59
2022/04/24 11:00:35;;;;;;;6.18;0.75;;;;;;;;;;5126373;28;20661;-59
2022/04/24 11:03:14;;;;;;;1.58;0.60;;;;;;;;;;5118679;28;20051;-60
2022/04/24 11:05:40;;;;;;;1.75;0.32;;;;;;;;;;5124720;28;20047;-59
2022/04/24 11:08:07;;;;;;;0.95;0.47;;;;;;;;;;5124970;28;20451;-60
2022/04/24 11:10:39;;;;;;;6.35;1.02;;;;;;;;;;5125944;28;20062;-60
2022/04/24 11:13:07;;;;;;;2.00;1.13;;;;;;;;;;5125671;28;20122;-60
2022/04/24 11:15:33;;;;;;;0.82;0.65;;;;;;;;;;5124943;28;20043;-59
2022/04/24 11:17:58;;;;;;;0.93;0.47;;;;;;;;;;5125502;28;20042;-60
2022/04/24 11:20:27;;;;;;;1.08;0.60;;;;;;;;;;5125815;28;20051;-61
2022/04/24 11:22:53;;;;;;;2.40;1.20;;;;;;;;;;5124645;28;20047;-59
2022/04/24 11:25:19;;;;;;;1.70;0.80;;;;;;;;;;5119376;28;20573;-60
2022/04/24 11:27:48;;;;;;;5.60;1.27;;;;;;;;;;5122700;28;20039;-58
2022/04/24 11:30:15;;;;;;;0.57;0.32;;;;;;;;;;5123506;28;20182;-59
2022/04/24 11:32:40;;;;;;;1.17;0.75;;;;;;;;;;5123233;28;20031;-59
2022/04/24 11:35:06;;;;;;;2.50;1.23;;;;;;;;;;5124706;28;20039;-61
2022/04/24 11:37:32;;;;;;;3.67;2.55;;;;;;;;;;5125592;28;20039;-61
2022/04/24 11:40:00;;;;;;;5.18;4.68;;;;;;;;;;5121714;28;20069;-59
2022/04/24 11:42:26;;;;;;;6.45;5.85;;;;;;;;;;5122330;28;20048;-60
2022/04/24 11:50:19;;;;;;;12.95;11.32;;;;;;;;;;5121211;28;20119;-59
2022/04/24 11:52:46;;;;;;;12.88;10.38;;;;;;;;;;5123475;28;20475;-59
2022/04/24 11:55:15;;;;;;;17.25;15.55;;;;;;;;;;5123932;28;20043;-58
2022/04/24 11:57:41;;;;;;;5.43;2.13;;;;;;;;;;5124329;28;20119;-58
2022/04/24 12:00:12;;;;;;;15.70;14.23;;;;;;;;;;5125116;28;20080;-57
2022/04/24 12:02:37;;;;;;;;;;;;;;;;;;5124811;28;20192;-59
2022/04/24 12:05:08;;;;;;;22.80;13.93;;;;;;;;;;5125011;28;20387;-60
2022/04/24 12:07:34;;;;;;;18.08;14.07;;;;;;;;;;5123498;27;20106;-61
2022/04/24 12:10:02;;;;;;;12.00;9.18;;;;;;;;;;5124324;28;20055;-58
2022/04/24 12:12:27;;;;;;;11.55;9.25;;;;;;;;;;5124238;28;20054;-58
2022/04/24 12:14:53;;;;;;;19.17;17.55;;;;;;;;;;5124414;28;20047;-60
2022/04/24 12:17:18;;;;;;;14.80;13.32;;;;;;;;;;5125073;28;20086;-60
2022/04/24 12:19:51;;;;;;;17.35;15.73;;;;;;;;;;5124655;28;20039;-58
2022/04/24 12:22:16;;;;;;;13.45;12.13;;;;;;;;;;5124378;28;20035;-58
2022/04/24 12:24:46;;;;;;;16.50;15.05;;;;;;;;;;5123098;28;20047;-59
2022/04/24 12:27:15;;;;;;;10.95;9.98;;;;;;;;;;5121994;28;20050;-59
2022/04/24 12:29:41;;;;;;;14.07;12.73;;;;;;;;;;5122535;28;20053;-58
2022/04/24 12:32:06;;;;;;;19.73;18.17;;;;;;;;;;5123785;28;20039;-59
2022/04/24 12:34:42;;;;;;;5.07;2.85;;;;;;;;;;5123801;28;20279;-60
2022/04/24 12:37:08;;;;;;;10.65;9.63;;;;;;;;;;5120804;28;20050;-60
2022/04/24 12:39:33;;;;;;;9.02;5.60;;;;;;;;;;5121808;28;20043;-60
2022/04/24 12:42:09;;;;;;;9.77;8.95;;;;;;;;;;5123630;28;20559;-61
2022/04/24 12:44:34;;;;;;;12.43;11.45;;;;;;;;;;5122772;28;20185;-56
2022/04/24 12:47:01;;;;;;;7.97;7.28;;;;;;;;;;5123384;28;20799;-58
2022/04/24 12:49:27;;;;;;;11.43;10.45;;;;;;;;;;5124310;28;20039;-57
2022/04/24 12:51:52;;;;;;;9.10;8.40;;;;;;;;;;5122136;28;20039;-57
2022/04/24 12:54:18;;;;;;;6.60;6.00;;;;;;;;;;5124285;27;20446;-57
2022/04/24 12:56:43;;;;;;;6.38;4.65;;;;;;;;;;5123673;28;20054;-58
2022/04/24 12:59:08;;;;;;;8.45;7.65;;;;;;;;;;5124059;28;20042;-58
2022/04/24 13:01:34;;;;;;;11.98;10.85;;;;;;;;;;5123286;28;20756;-58
2022/04/24 13:03:59;;;;;;;8.18;7.47;;;;;;;;;;5122540;28;20538;-58
2022/04/24 13:06:25;;;;;;;9.35;8.45;;;;;;;;;;5123333;28;20050;-58
2022/04/24 13:08:53;;;;;;;8.63;7.93;;;;;;;;;;5124261;28;20126;-58
2022/04/24 13:11:23;;;;;;;11.48;6.60;;;;;;;;;;5122541;28;20047;-59
2022/04/24 13:13:48;;;;;;;4.53;3.25;;;;;;;;;;5123422;28;20071;-60
2022/04/24 13:18:57;;;;;;;5.45;5.05;;;;;;;;;;5123448;27;20054;-59
2022/04/24 13:21:22;;;;;;;5.25;4.60;;;;;;;;;;5123628;27;20046;-58
2022/04/24 13:23:48;;;;;;;6.03;4.43;;;;;;;;;;5122905;27;20059;-61
2022/04/24 13:26:13;;;;;;;9.38;3.00;;;;;;;;;;5120663;28;20086;-59
2022/04/24 13:28:39;;;;;;;2.53;1.98;;;;;;;;;;5121645;28;20453;-58
2022/04/24 13:31:05;;;;;;;5.07;4.57;;;;;;;;;;5121629;28;20459;-59
2022/04/24 13:33:30;;;;;;;6.22;3.55;;;;;;;;;;5102897;28;20035;-58
2022/04/24 13:35:56;;;;;;;2.45;2.22;;;;;;;;;;5123001;28;20035;-58
2022/04/24 13:38:22;;;;;;;2.45;1.75;;;;;;;;;;5123327;28;20035;-59
2022/04/24 13:40:49;;;;;;;1.90;0.88;;;;;;;;;;5120960;28;20039;-58
2022/04/24 13:43:15;;;;;;;3.60;1.27;;;;;;;;;;5121245;28;20243;-58
2022/04/24 13:45:40;;;;;;;1.67;1.00;;;;;;;;;;5120950;28;20530;-59
2022/04/24 13:48:06;;;;;;;2.47;1.60;;;;;;;;;;5121651;28;20458;-58
2022/04/24 13:50:33;;;;;;;2.53;2.25;;;;;;;;;;5122699;28;20039;-59
2022/04/24 13:53:02;;;;;;;6.85;2.25;;;;;;;;;;5120709;28;20293;-59
2022/04/24 13:55:28;;;;;;;2.35;1.65;;;;;;;;;;5121325;28;20122;-59
2022/04/24 13:57:54;;;;;;;2.83;1.38;;;;;;;;;;5122220;28;20083;-59
2022/04/24 14:00:19;;;;;;;4.25;1.92;;;;;;;;;;5121956;28;20043;-59
2022/04/24 14:02:46;;;;;;;5.00;2.58;;;;;;;;;;5122079;28;20059;-59
2022/04/24 14:05:11;;;;;;;4.93;1.95;;;;;;;;;;5121196;28;20108;-58
2022/04/24 14:07:37;;;;;;;2.58;1.30;;;;;;;;;;5121669;28;20039;-58
2022/04/24 14:10:03;;;;;;;1.60;0.98;;;;;;;;;;5122239;28;20045;-57
2022/04/24 14:12:28;;;;;;;1.52;1.17;;;;;;;;;;5122078;28;20062;-58
2022/04/24 14:14:54;;;;;;;3.80;1.40;;;;;;;;;;5121563;28;20458;-56
2022/04/24 14:17:19;;;;;;;1.75;1.25;;;;;;;;;;5121607;28;20599;-58
2022/04/24 14:19:44;;;;;;;2.92;1.20;;;;;;;;;;5121916;28;20090;-59
2022/04/24 14:22:10;;;;;;;4.03;1.83;;;;;;;;;;5122749;28;20047;-60
2022/04/24 14:24:35;;;;;;;2.38;1.88;;;;;;;;;;5121812;28;20545;-59
2022/04/24 14:27:00;;;;;;;1.65;1.00;;;;;;;;;;5122456;28;20221;-58
2022/04/24 14:29:26;;;;;;;1.63;1.15;;;;;;;;;;5122328;27;20043;-57
2022/04/24 14:31:51;;;;;;;3.58;1.60;;;;;;;;;;5099609;28;20753;-58
2022/04/24 14:34:17;;;;;;;2.80;1.30;;;;;;;;;;5121471;28;20300;-58
2022/04/24 14:36:43;;;;;;;1.63;0.80;;;;;;;;;;5122470;28;20050;-58
2022/04/24 14:39:09;;;;;;;2.08;1.30;;;;;;;;;;5119368;28;20075;-59
2022/04/24 14:41:35;;;;;;;2.88;0.80;;;;;;;;;;5122471;28;20092;-59
2022/04/24 14:44:00;;;;;;;0.90;0.55;;;;;;;;;;5121608;28;20047;-59
2022/04/24 14:57:25;;;;;;;1.25;0.60;;;;;;;;;;5122223;28;20058;-59